createdAt,value
2023-03-08T00:02:17.897Z,1.00
2023-03-08T00:04:45.062Z,0.80
2023-03-08T00:07:12.433Z,1.10
2023-03-08T00:09:39.777Z,1.00
2023-03-08T00:12:07.522Z,1.10
2023-03-08T00:14:34.712Z,1.00
2023-03-08T00:17:02.776Z,0.90
2023-03-08T00:19:29.968Z,1.00
2023-03-08T00:21:57.151Z,1.00
2023-03-08T00:24:24.474Z,0.93
2023-03-08T00:26:51.586Z,0.90
2023-03-08T00:29:18.761Z,1.20
2023-03-08T00:31:45.978Z,1.00
2023-03-08T00:34:13.148Z,2.60
2023-03-08T00:36:40.542Z,1.50
2023-03-08T00:39:07.785Z,0.83
2023-03-08T00:41:34.931Z,1.00
2023-03-08T00:44:02.231Z,1.10
2023-03-08T00:46:29.498Z,0.90
2023-03-08T00:48:56.683Z,1.20
2023-03-08T00:51:23.936Z,0.90
2023-03-08T00:53:51.111Z,1.00
2023-03-08T00:56:18.309Z,1.10
2023-03-08T00:58:45.725Z,0.80
2023-03-08T01:01:15.323Z,0.90
2023-03-08T01:03:42.447Z,0.83
2023-03-08T01:06:11.538Z,0.90
2023-03-08T01:08:40.204Z,0.90
2023-03-08T01:11:07.361Z,0.77
2023-03-08T01:13:35.864Z,1.10
2023-03-08T01:16:03.788Z,0.90
2023-03-08T01:18:31.074Z,1.00
2023-03-08T01:20:59.265Z,0.87
2023-03-08T01:23:26.594Z,1.03
2023-03-08T01:26:04.181Z,0.73
2023-03-08T01:28:31.427Z,1.00
2023-03-08T01:31:02.192Z,0.90
2023-03-08T01:33:29.326Z,0.83
2023-03-08T01:35:56.524Z,0.93
2023-03-08T01:38:24.101Z,0.93
2023-03-08T01:40:55.848Z,1.00
2023-03-08T01:43:41.134Z,1.00
2023-03-08T01:46:10.993Z,0.93
2023-03-08T01:48:41.670Z,1.13
2023-03-08T01:51:09.885Z,1.10
2023-03-08T01:53:38.429Z,1.00
2023-03-08T01:56:08.733Z,1.37
2023-03-08T01:58:35.881Z,0.97
2023-03-08T02:01:03.141Z,0.93
2023-03-08T02:03:30.330Z,1.00
2023-03-08T02:05:57.844Z,0.80
2023-03-08T02:08:24.978Z,1.03
2023-03-08T02:10:52.511Z,0.83
2023-03-08T02:13:20.606Z,1.23
2023-03-08T02:15:47.894Z,0.80
2023-03-08T02:18:15.033Z,1.57
2023-03-08T02:20:42.183Z,1.33
2023-03-08T02:23:13.726Z,0.80
2023-03-08T02:25:40.994Z,0.70
2023-03-08T02:28:08.227Z,1.10
2023-03-08T02:30:36.994Z,1.00
2023-03-08T02:33:04.308Z,1.00
2023-03-08T02:35:31.509Z,1.23
2023-03-08T02:37:58.668Z,0.97
2023-03-08T02:40:25.965Z,0.90
2023-03-08T02:42:53.619Z,0.93
2023-03-08T02:45:20.807Z,1.03
2023-03-08T02:47:47.931Z,1.40
2023-03-08T02:50:15.059Z,1.30
2023-03-08T02:52:42.168Z,1.20
2023-03-08T02:55:09.443Z,1.00
2023-03-08T02:57:36.592Z,1.03
2023-03-08T03:00:04.561Z,1.30
2023-03-08T03:02:33.464Z,0.80
2023-03-08T03:05:00.659Z,1.00
2023-03-08T03:07:27.895Z,1.00
2023-03-08T03:09:55.025Z,0.97
2023-03-08T03:12:22.266Z,0.90
2023-03-08T03:14:49.458Z,0.90
2023-03-08T03:17:16.578Z,0.90
2023-03-08T03:19:43.697Z,1.00
2023-03-08T03:22:10.849Z,1.33
2023-03-08T03:24:37.990Z,1.00
2023-03-08T03:27:05.250Z,1.00
2023-03-08T03:29:32.364Z,0.80
2023-03-08T03:31:59.479Z,0.90
2023-03-08T03:34:26.690Z,1.00
2023-03-08T03:36:53.819Z,0.93
2023-03-08T03:39:20.931Z,0.97
2023-03-08T03:41:48.062Z,0.80
2023-03-08T03:44:15.250Z,1.03
2023-03-08T03:46:42.447Z,1.00
2023-03-08T03:49:09.685Z,1.30
2023-03-08T03:51:36.834Z,1.00
2023-03-08T03:54:05.378Z,1.23
2023-03-08T03:56:33.573Z,1.10
2023-03-08T03:59:00.736Z,1.00
2023-03-08T04:01:29.501Z,1.03
2023-03-08T04:03:57.271Z,1.03
2023-03-08T04:06:25.842Z,1.03
2023-03-08T04:08:54.471Z,0.80
2023-03-08T04:11:23.499Z,1.07
2023-03-08T04:13:51.008Z,0.70
2023-03-08T04:16:28.651Z,1.00
2023-03-08T04:18:57.343Z,0.87
2023-03-08T04:21:24.696Z,1.03
2023-03-08T04:23:52.364Z,0.80
2023-03-08T04:26:19.839Z,1.00
2023-03-08T04:28:46.969Z,0.70
2023-03-08T04:31:14.193Z,0.87
2023-03-08T04:33:41.410Z,1.00
2023-03-08T04:36:09.107Z,0.83
2023-03-08T04:38:37.073Z,0.80
2023-03-08T04:41:13.639Z,0.80
2023-03-08T04:43:42.033Z,1.00
2023-03-08T04:46:09.284Z,1.00
2023-03-08T04:48:36.567Z,1.10
2023-03-08T04:51:04.596Z,1.20
2023-03-08T04:53:32.540Z,0.60
2023-03-08T04:56:00.673Z,0.90
2023-03-08T04:58:28.232Z,1.20
2023-03-08T05:00:55.892Z,0.90
2023-03-08T05:03:23.155Z,0.90
2023-03-08T05:05:51.668Z,0.90
2023-03-08T05:08:19.370Z,0.90
2023-03-08T05:10:50.245Z,0.87
2023-03-08T05:13:17.377Z,0.90
2023-03-08T05:15:44.630Z,1.17
2023-03-08T05:18:11.878Z,1.10
2023-03-08T05:20:39.046Z,1.03
2023-03-08T05:23:06.195Z,0.90
2023-03-08T05:25:33.654Z,1.00
2023-03-08T05:28:01.089Z,1.03
2023-03-08T05:30:28.281Z,1.20
2023-03-08T05:32:55.442Z,1.00
2023-03-08T05:35:22.608Z,0.93
2023-03-08T05:37:49.712Z,0.70
2023-03-08T05:40:16.891Z,1.20
2023-03-08T05:42:44.014Z,1.03
2023-03-08T05:45:11.655Z,1.00
2023-03-08T05:47:38.793Z,1.00
2023-03-08T05:50:06.120Z,1.00
2023-03-08T05:52:34.689Z,0.80
2023-03-08T05:55:01.982Z,0.87
2023-03-08T05:57:29.579Z,0.80
2023-03-08T05:59:56.722Z,1.20
2023-03-08T06:02:23.895Z,0.93
2023-03-08T06:04:51.099Z,1.10
2023-03-08T06:07:18.348Z,1.10
2023-03-08T06:09:45.584Z,1.10
2023-03-08T06:12:12.714Z,1.00
2023-03-08T06:14:39.824Z,1.30
2023-03-08T06:17:07.013Z,1.00
2023-03-08T06:19:34.232Z,1.10
2023-03-08T06:22:01.360Z,1.20
2023-03-08T06:24:28.473Z,1.07
2023-03-08T06:26:56.227Z,1.20
2023-03-08T06:29:23.756Z,4.40
2023-03-08T06:31:50.882Z,1.87
2023-03-08T06:34:18.081Z,1.40
2023-03-08T06:36:45.252Z,1.20
2023-03-08T06:39:12.357Z,1.00
2023-03-08T06:41:39.572Z,1.30
2023-03-08T06:44:06.706Z,1.57
2023-03-08T06:46:33.883Z,1.40
2023-03-08T06:49:01.475Z,1.30
2023-03-08T06:51:28.672Z,1.10
2023-03-08T06:53:55.808Z,1.10
2023-03-08T06:56:22.991Z,1.23
2023-03-08T06:58:50.131Z,1.00
2023-03-08T07:01:17.628Z,1.23
2023-03-08T07:03:45.432Z,1.00
2023-03-08T07:06:12.983Z,1.00
2023-03-08T07:08:40.212Z,1.00
2023-03-08T07:11:08.928Z,1.40
2023-03-08T07:13:36.463Z,1.00
2023-03-08T07:16:08.101Z,0.90
2023-03-08T07:18:35.758Z,0.97
2023-03-08T07:21:02.986Z,1.40
2023-03-08T07:23:30.113Z,0.80
2023-03-08T07:25:57.288Z,0.80
2023-03-08T07:28:24.667Z,1.00
2023-03-08T07:30:53.261Z,1.27
2023-03-08T07:33:21.403Z,1.10
2023-03-08T07:35:49.036Z,1.30
2023-03-08T07:38:16.465Z,1.60
2023-03-08T07:40:43.926Z,1.60
2023-03-08T07:43:11.406Z,1.50
2023-03-08T07:45:39.732Z,1.53
2023-03-08T07:48:07.541Z,1.50
2023-03-08T07:50:34.926Z,1.40
2023-03-08T07:53:02.183Z,1.50
2023-03-08T07:55:29.721Z,1.60
2023-03-08T07:57:56.881Z,1.40
2023-03-08T08:00:24.169Z,1.50
2023-03-08T08:02:53.991Z,1.50
2023-03-08T08:05:24.673Z,1.37
2023-03-08T08:07:51.944Z,1.50
2023-03-08T08:10:19.108Z,1.40
2023-03-08T08:12:46.305Z,1.60
2023-03-08T08:15:13.688Z,1.83
2023-03-08T08:17:40.864Z,2.10
2023-03-08T08:20:08.372Z,1.63
2023-03-08T08:22:38.707Z,1.63
2023-03-08T08:25:06.813Z,1.70
2023-03-08T08:27:34.159Z,1.63
2023-03-08T08:30:01.342Z,2.00
2023-03-08T08:32:28.617Z,1.70
2023-03-08T08:34:55.814Z,1.33
2023-03-08T08:37:23.331Z,1.27
2023-03-08T08:39:50.457Z,1.30
2023-03-08T08:42:17.577Z,1.50
2023-03-08T08:44:44.699Z,1.60
2023-03-08T08:47:11.830Z,1.60
2023-03-08T08:49:39.281Z,1.73
2023-03-08T08:52:06.561Z,1.50
2023-03-08T08:54:34.266Z,1.40
2023-03-08T08:57:01.480Z,1.40
2023-03-08T08:59:28.745Z,1.30
2023-03-08T09:01:55.916Z,1.30
2023-03-08T09:04:23.160Z,1.63
2023-03-08T09:06:50.396Z,1.40
2023-03-08T09:09:18.756Z,1.40
2023-03-08T09:11:54.648Z,1.67
2023-03-08T09:14:22.570Z,1.40
2023-03-08T09:16:49.934Z,1.37
2023-03-08T09:19:17.112Z,1.37
2023-03-08T09:21:44.305Z,1.27
2023-03-08T09:24:12.629Z,1.30
2023-03-08T09:26:39.795Z,1.20
2023-03-08T09:29:07.578Z,1.20
2023-03-08T09:31:36.390Z,1.10
2023-03-08T09:34:08.985Z,1.30
2023-03-08T09:36:39.396Z,1.30
2023-03-08T09:39:08.964Z,1.50
2023-03-08T09:41:39.437Z,1.10
2023-03-08T09:44:24.964Z,1.20
2023-03-08T09:46:55.692Z,1.30
2023-03-08T09:49:26.872Z,1.37
2023-03-08T09:51:59.375Z,1.20
2023-03-08T09:54:26.945Z,1.43
2023-03-08T09:56:56.311Z,1.13
2023-03-08T09:59:27.604Z,1.47
2023-03-08T10:02:04.005Z,1.50
2023-03-08T10:04:40.798Z,1.30
2023-03-08T10:07:15.392Z,1.37
2023-03-08T10:09:50.375Z,1.40
2023-03-08T10:12:20.568Z,1.37
2023-03-08T10:14:57.424Z,1.40
2023-03-08T10:17:28.906Z,1.20
2023-03-08T10:20:29.935Z,1.40
2023-03-08T10:23:02.607Z,1.40
2023-03-08T10:25:31.630Z,1.50
2023-03-08T10:28:00.120Z,1.50
2023-03-08T10:30:36.115Z,1.40
2023-03-08T10:33:06.691Z,1.43
2023-03-08T10:35:36.861Z,1.30
2023-03-08T10:38:15.803Z,1.60
2023-03-08T10:40:43.118Z,1.30
2023-03-08T10:43:17.602Z,1.50
2023-03-08T10:45:44.774Z,1.57
2023-03-08T10:48:20.948Z,1.27
2023-03-08T10:50:58.918Z,1.10
2023-03-08T10:53:29.488Z,1.37
2023-03-08T10:55:58.068Z,1.30
2023-03-08T10:58:34.941Z,1.30
2023-03-08T11:01:06.623Z,1.13
2023-03-08T11:03:34.273Z,1.20
2023-03-08T11:06:17.060Z,1.50
2023-03-08T11:08:54.885Z,1.40
2023-03-08T11:11:22.046Z,1.20
2023-03-08T11:13:50.088Z,1.33
2023-03-08T11:16:20.480Z,1.10
2023-03-08T11:18:52.385Z,1.40
2023-03-08T11:21:24.864Z,1.37
2023-03-08T11:24:03.837Z,1.20
2023-03-08T11:26:36.131Z,1.00
2023-03-08T11:29:03.313Z,1.10
2023-03-08T11:31:35.256Z,1.37
2023-03-08T11:34:19.149Z,1.10
2023-03-08T11:36:55.402Z,1.20
2023-03-08T11:39:25.329Z,1.03
2023-03-08T11:41:58.393Z,0.93
2023-03-08T11:44:28.622Z,0.87
2023-03-08T11:47:09.461Z,1.00
2023-03-08T11:49:39.739Z,1.00
2023-03-08T11:52:25.248Z,1.00
2023-03-08T11:54:55.176Z,0.90
2023-03-08T11:57:24.246Z,1.00
2023-03-08T11:59:53.572Z,0.93
2023-03-08T12:02:31.285Z,1.20
2023-03-08T12:05:01.719Z,0.93
2023-03-08T12:07:35.415Z,0.73
2023-03-08T12:10:05.849Z,0.90
2023-03-08T12:12:40.471Z,1.30
2023-03-08T12:15:15.079Z,0.90
2023-03-08T12:17:44.911Z,1.10
2023-03-08T12:20:16.181Z,0.97
2023-03-08T12:22:47.874Z,1.17
2023-03-08T12:25:33.294Z,1.10
2023-03-08T12:28:12.981Z,1.10
2023-03-08T12:30:58.526Z,1.00
2023-03-08T12:33:26.923Z,1.10
2023-03-08T12:35:55.989Z,1.20
2023-03-08T12:38:23.265Z,0.90
2023-03-08T12:40:51.481Z,1.03
2023-03-08T12:43:21.768Z,0.90
2023-03-08T12:46:00.977Z,1.00
2023-03-08T12:48:37.613Z,1.10
2023-03-08T12:51:16.901Z,0.80
2023-03-08T12:53:48.806Z,0.80
2023-03-08T12:56:19.000Z,0.40
2023-03-08T12:58:48.908Z,0.70
2023-03-08T13:01:25.131Z,0.90
2023-03-08T13:03:52.390Z,0.70
2023-03-08T13:06:28.518Z,1.10
2023-03-08T13:09:15.899Z,0.70
2023-03-08T13:11:48.429Z,0.73
2023-03-08T13:14:29.341Z,0.70
2023-03-08T13:16:56.604Z,0.60
2023-03-08T13:19:31.669Z,0.53
2023-03-08T13:22:06.749Z,0.60
2023-03-08T13:24:33.863Z,0.50
2023-03-08T13:27:00.994Z,0.80
2023-03-08T13:29:29.475Z,0.70
2023-03-08T13:31:56.831Z,0.57
2023-03-08T13:34:32.147Z,0.63
2023-03-08T13:36:59.716Z,0.43
2023-03-08T13:39:29.027Z,0.50
2023-03-08T13:42:06.461Z,0.60
2023-03-08T13:44:33.662Z,0.80
2023-03-08T13:47:19.584Z,0.63
2023-03-08T13:49:46.892Z,0.73
2023-03-08T13:52:16.875Z,0.53
2023-03-08T13:54:46.841Z,0.77
2023-03-08T13:57:22.417Z,0.40
2023-03-08T13:59:50.571Z,0.60
2023-03-08T14:02:22.717Z,0.63
2023-03-08T14:04:50.230Z,0.50
2023-03-08T14:07:43.745Z,0.40
2023-03-08T14:10:14.226Z,0.70
2023-03-08T14:12:41.494Z,0.60
2023-03-08T14:15:08.873Z,0.50
2023-03-08T14:17:36.913Z,0.73
2023-03-08T14:20:07.605Z,0.63
2023-03-08T14:22:40.129Z,0.70
2023-03-08T14:25:20.859Z,0.60
2023-03-08T14:27:48.019Z,0.50
2023-03-08T14:30:19.794Z,0.60
2023-03-08T14:32:56.714Z,0.47
2023-03-08T14:35:25.716Z,0.60
2023-03-08T14:37:56.306Z,0.67
2023-03-08T14:40:27.016Z,0.77
2023-03-08T14:42:58.944Z,0.60
2023-03-08T14:45:46.326Z,0.73
2023-03-08T14:48:29.541Z,0.60
2023-03-08T14:50:56.824Z,0.60
2023-03-08T14:53:31.855Z,0.50
2023-03-08T14:55:59.940Z,0.80
2023-03-08T14:58:32.681Z,0.80
2023-03-08T15:01:04.038Z,0.73
2023-03-08T15:03:32.405Z,0.50
2023-03-08T15:06:00.770Z,0.70
2023-03-08T15:08:28.194Z,0.57
2023-03-08T15:10:55.396Z,0.40
2023-03-08T15:13:24.078Z,0.50
2023-03-08T15:15:51.490Z,0.43
2023-03-08T15:18:18.699Z,0.60
2023-03-08T15:20:48.652Z,0.73
2023-03-08T15:23:21.231Z,0.60
2023-03-08T15:25:48.405Z,0.50
2023-03-08T15:28:16.324Z,0.43
2023-03-08T15:30:43.711Z,0.70
2023-03-08T15:33:10.857Z,0.80
2023-03-08T15:35:41.237Z,0.80
2023-03-08T15:38:08.460Z,0.67
2023-03-08T15:40:36.578Z,0.60
2023-03-08T15:43:03.779Z,0.67
2023-03-08T15:45:30.922Z,0.80
2023-03-08T15:47:58.060Z,0.70
2023-03-08T15:50:25.323Z,0.73
2023-03-08T15:52:52.570Z,0.60
2023-03-08T15:55:19.726Z,0.60
2023-03-08T15:57:46.967Z,0.90
2023-03-08T16:00:14.869Z,1.00
2023-03-08T16:02:42.256Z,0.90
2023-03-08T16:05:10.272Z,0.80
2023-03-08T16:07:37.869Z,0.60
2023-03-08T16:10:06.076Z,1.50
2023-03-08T16:12:33.239Z,1.10
2023-03-08T16:15:00.486Z,1.00
2023-03-08T16:17:29.715Z,0.90
2023-03-08T16:19:56.932Z,0.70
2023-03-08T16:22:24.209Z,0.70
2023-03-08T16:24:51.352Z,0.77
2023-03-08T16:27:18.487Z,0.87
2023-03-08T16:29:45.656Z,0.97
2023-03-08T16:32:16.375Z,0.97
2023-03-08T16:34:43.640Z,0.90
2023-03-08T16:37:10.791Z,1.00
2023-03-08T16:39:37.926Z,1.00
2023-03-08T16:42:05.157Z,1.00
2023-03-08T16:44:32.340Z,1.03
2023-03-08T16:46:59.485Z,0.87
2023-03-08T16:49:28.522Z,0.90
2023-03-08T16:51:56.397Z,0.97
2023-03-08T16:54:24.050Z,1.10
2023-03-08T16:56:51.432Z,0.87
2023-03-08T16:59:18.771Z,1.10
2023-03-08T17:01:47.410Z,1.30
2023-03-08T17:04:14.614Z,0.90
2023-03-08T17:06:43.494Z,0.70
2023-03-08T17:09:11.960Z,1.10
2023-03-08T17:11:39.427Z,1.07
2023-03-08T17:14:09.067Z,0.93
2023-03-08T17:16:36.535Z,1.33
2023-03-08T17:19:05.186Z,1.47
2023-03-08T17:21:38.090Z,1.30
2023-03-08T17:24:09.362Z,1.00
2023-03-08T17:26:37.394Z,1.10
2023-03-08T17:29:04.687Z,1.27
2023-03-08T17:31:31.949Z,1.30
2023-03-08T17:33:59.280Z,1.10
2023-03-08T17:36:27.033Z,1.13
2023-03-08T17:38:55.374Z,1.40
2023-03-08T17:41:23.185Z,1.03
2023-03-08T17:43:50.725Z,1.03
2023-03-08T17:46:24.916Z,1.10
2023-03-08T17:48:53.257Z,1.00
2023-03-08T17:51:21.843Z,1.03
2023-03-08T17:53:49.040Z,1.07
2023-03-08T17:56:17.208Z,1.10
2023-03-08T17:58:45.028Z,1.27
2023-03-08T18:01:13.584Z,1.00
2023-03-08T18:03:40.863Z,1.10
2023-03-08T18:06:08.690Z,1.10
2023-03-08T18:08:36.190Z,1.33
2023-03-08T18:11:03.395Z,1.30
2023-03-08T18:13:30.615Z,1.00
2023-03-08T18:15:57.802Z,1.20
2023-03-08T18:18:27.106Z,1.13
2023-03-08T18:21:01.308Z,1.30
2023-03-08T18:23:34.310Z,1.30
2023-03-08T18:26:01.579Z,1.07
2023-03-08T18:28:28.765Z,1.40
2023-03-08T18:30:56.001Z,1.13
2023-03-08T18:33:23.200Z,1.27
2023-03-08T18:35:57.255Z,1.30
2023-03-08T18:38:24.934Z,1.10
2023-03-08T18:40:52.145Z,1.20
2023-03-08T18:43:19.504Z,1.30
2023-03-08T18:45:50.573Z,1.30
2023-03-08T18:48:17.717Z,1.23
2023-03-08T18:50:45.841Z,1.50
2023-03-08T18:53:13.107Z,1.20
2023-03-08T18:55:41.260Z,1.37
2023-03-08T18:58:08.432Z,1.10
2023-03-08T19:00:35.608Z,1.10
2023-03-08T19:03:02.763Z,1.53
2023-03-08T19:05:30.055Z,1.50
2023-03-08T19:07:57.199Z,1.40
2023-03-08T19:10:24.419Z,1.73
2023-03-08T19:12:51.563Z,1.30
2023-03-08T19:15:18.736Z,1.30
2023-03-08T19:17:45.937Z,1.20
2023-03-08T19:20:13.388Z,1.13
2023-03-08T19:22:40.545Z,1.20
2023-03-08T19:25:08.369Z,1.23
2023-03-08T19:27:35.560Z,1.20
2023-03-08T19:30:02.771Z,1.10
2023-03-08T19:32:29.913Z,1.30
2023-03-08T19:34:57.073Z,1.10
2023-03-08T19:37:24.448Z,1.20
2023-03-08T19:39:51.727Z,0.90
2023-03-08T19:42:19.126Z,1.10
2023-03-08T19:44:48.475Z,1.40
2023-03-08T19:47:16.371Z,1.20
2023-03-08T19:49:43.973Z,1.27
2023-03-08T19:52:13.406Z,1.20
2023-03-08T19:54:43.963Z,1.30
2023-03-08T19:57:11.381Z,1.10
2023-03-08T19:59:38.596Z,1.10
2023-03-08T20:02:06.757Z,1.30
2023-03-08T20:04:34.096Z,1.17
2023-03-08T20:07:01.830Z,1.30
2023-03-08T20:09:29.119Z,1.20
2023-03-08T20:11:58.967Z,1.10
2023-03-08T20:14:27.213Z,3.00
2023-03-08T20:16:54.705Z,1.30
2023-03-08T20:19:21.922Z,1.40
2023-03-08T20:21:49.154Z,1.20
2023-03-08T20:24:18.756Z,1.23
2023-03-08T20:26:46.572Z,1.13
2023-03-08T20:29:13.998Z,1.03
2023-03-08T20:31:41.130Z,1.40
2023-03-08T20:34:08.364Z,1.50
2023-03-08T20:36:35.501Z,1.43
2023-03-08T20:39:02.714Z,1.20
2023-03-08T20:41:30.287Z,1.10
2023-03-08T20:43:57.487Z,1.30
2023-03-08T20:46:26.208Z,1.23
2023-03-08T20:48:53.573Z,1.20
2023-03-08T20:51:21.457Z,1.27
2023-03-08T20:53:50.368Z,1.67
2023-03-08T20:56:18.786Z,1.80
2023-03-08T20:58:46.413Z,1.63
2023-03-08T21:01:14.709Z,1.80
2023-03-08T21:03:41.856Z,2.27
2023-03-08T21:06:16.990Z,1.73
2023-03-08T21:08:44.119Z,1.80
2023-03-08T21:11:11.707Z,1.60
2023-03-08T21:13:39.616Z,1.40
2023-03-08T21:16:08.164Z,1.40
2023-03-08T21:18:35.389Z,1.50
2023-03-08T21:21:02.511Z,1.60
2023-03-08T21:23:29.993Z,1.43
2023-03-08T21:26:00.253Z,1.70
2023-03-08T21:28:27.487Z,1.60
2023-03-08T21:30:54.857Z,1.60
2023-03-08T21:33:22.078Z,1.50
2023-03-08T21:35:49.389Z,1.57
2023-03-08T21:38:16.582Z,1.70
2023-03-08T21:40:43.800Z,1.30
2023-03-08T21:43:10.940Z,1.53
2023-03-08T21:45:41.846Z,1.30
2023-03-08T21:48:09.687Z,1.53
2023-03-08T21:50:40.392Z,1.57
2023-03-08T21:53:07.904Z,1.40
2023-03-08T21:55:35.208Z,1.50
2023-03-08T21:58:02.381Z,1.50
2023-03-08T22:00:29.592Z,1.80
2023-03-08T22:02:56.850Z,2.50
2023-03-08T22:05:24.210Z,2.17
2023-03-08T22:07:51.379Z,2.10
2023-03-08T22:10:20.196Z,2.57
2023-03-08T22:12:47.526Z,2.20
2023-03-08T22:15:15.763Z,1.77
2023-03-08T22:17:43.390Z,1.70
2023-03-08T22:20:11.163Z,2.07
2023-03-08T22:22:38.768Z,2.10
2023-03-08T22:25:06.576Z,2.70
2023-03-08T22:27:33.874Z,2.27
2023-03-08T22:30:01.074Z,2.50
2023-03-08T22:32:28.305Z,2.90
2023-03-08T22:34:55.453Z,2.60
2023-03-08T22:37:22.805Z,2.60
2023-03-08T22:39:49.996Z,2.20
2023-03-08T22:42:17.196Z,2.33
2023-03-08T22:44:44.381Z,2.33
2023-03-08T22:47:11.567Z,2.60
2023-03-08T22:49:38.771Z,2.70
2023-03-08T22:52:07.094Z,2.40
2023-03-08T22:54:34.627Z,2.23
2023-03-08T22:57:02.048Z,1.90
2023-03-08T22:59:29.161Z,2.33
2023-03-08T23:01:56.397Z,2.60
2023-03-08T23:04:23.598Z,1.80
2023-03-08T23:06:50.820Z,2.00
2023-03-08T23:09:18.029Z,2.00
2023-03-08T23:11:45.400Z,1.83
2023-03-08T23:14:12.964Z,1.70
2023-03-08T23:16:44.484Z,1.70
2023-03-08T23:19:13.091Z,1.60
2023-03-08T23:21:40.251Z,1.50
2023-03-08T23:24:07.617Z,1.50
2023-03-08T23:26:35.366Z,1.40
2023-03-08T23:29:06.486Z,1.40
2023-03-08T23:31:35.759Z,1.50
2023-03-08T23:34:04.013Z,1.60
2023-03-08T23:36:32.164Z,1.40
2023-03-08T23:39:03.776Z,1.60
2023-03-08T23:41:31.712Z,1.50
2023-03-08T23:43:59.974Z,1.20
2023-03-08T23:46:27.453Z,1.40
2023-03-08T23:48:56.047Z,1.60
2023-03-08T23:51:23.513Z,1.43
2023-03-08T23:53:51.422Z,1.60
2023-03-08T23:56:20.644Z,1.77
2023-03-08T23:58:49.617Z,1.60
